Time;durP1;ratioP1;P1;durP2;ratioP2;P2;SDS_P1;SDS_P2;PMS_P1;PMS_P2;Temp;Humidity;BMP_temperature;BMP_pressure;BME280_temperature;BME280_humidity;BME280_pressure;Samples;Min_cycle;Max_cycle;Signal;HPM_P1;HPM_P2
2023/05/15 00:02:06;;;;;;;75.50;50.57;;;11.90;99.90;;;;;;4961396;29;20180;-88
2023/05/15 00:04:32;;;;;;;70.50;48.77;;;12.00;99.90;;;;;;4964447;29;20212;-88
2023/05/15 00:06:57;;;;;;;75.80;53.00;;;12.00;99.90;;;;;;4960810;29;20177;-85
2023/05/15 00:09:23;;;;;;;71.03;51.10;;;12.00;99.90;;;;;;4960588;29;20180;-87
2023/05/15 00:11:50;;;;;;;72.37;49.00;;;12.00;99.90;;;;;;4964158;28;20196;-87
2023/05/15 00:14:15;;;;;;;76.13;51.40;;;12.00;99.90;;;;;;4962007;29;20268;-86
2023/05/15 00:16:41;;;;;;;68.37;50.50;;;12.00;99.90;;;;;;4964863;28;20631;-91
2023/05/15 00:19:07;;;;;;;75.90;53.37;;;12.10;99.60;;;;;;4968247;28;20235;-78
2023/05/15 00:21:33;;;;;;;77.80;54.97;;;12.00;99.60;;;;;;4976073;28;20180;-78
2023/05/15 00:23:58;;;;;;;76.47;52.87;;;12.00;99.20;;;;;;4976857;28;20203;-77
2023/05/15 00:26:25;;;;;;;79.20;53.53;;;12.00;99.10;;;;;;4973882;28;20232;-79
2023/05/15 00:28:51;;;;;;;75.27;52.07;;;12.00;99.90;;;;;;4973851;28;20212;-78
2023/05/15 00:31:18;;;;;;;73.07;50.80;;;12.00;99.90;;;;;;4974793;28;20179;-76
2023/05/15 00:33:46;;;;;;;86.33;56.63;;;12.00;98.80;;;;;;4973169;28;20188;-78
2023/05/15 00:36:12;;;;;;;75.10;51.43;;;11.90;99.90;;;;;;4975855;28;20161;-77
2023/05/15 00:38:43;;;;;;;66.53;47.77;;;11.90;99.90;;;;;;4976004;29;20191;-78
2023/05/15 00:41:13;;;;;;;66.33;49.37;;;11.80;99.90;;;;;;4977640;28;20170;-77
2023/05/15 00:43:40;;;;;;;66.77;47.77;;;11.80;99.90;;;;;;4977109;28;20235;-77
2023/05/15 00:46:10;;;;;;;59.53;44.23;;;11.80;99.90;;;;;;4977179;28;20165;-78
2023/05/15 00:48:36;;;;;;;67.07;47.57;;;11.80;99.90;;;;;;4973027;28;20196;-78
2023/05/15 00:51:02;;;;;;;64.00;46.67;;;11.60;99.90;;;;;;4973779;28;20181;-82
2023/05/15 00:53:27;;;;;;;66.17;46.90;;;11.50;99.90;;;;;;4966848;28;20656;-89
2023/05/15 00:55:58;;;;;;;66.73;46.63;;;11.60;99.90;;;;;;4971823;28;20167;-82
2023/05/15 00:58:27;;;;;;;64.30;45.70;;;11.50;99.90;;;;;;4978536;28;20176;-79
2023/05/15 01:00:53;;;;;;;60.13;44.43;;;11.50;99.90;;;;;;4980832;28;20144;-77
2023/05/15 01:03:19;;;;;;;65.60;45.77;;;11.40;99.90;;;;;;4975781;29;20259;-79
2023/05/15 01:05:45;;;;;;;67.57;46.63;;;11.50;99.90;;;;;;4977451;28;20176;-77
2023/05/15 01:08:45;;;;;;;62.53;45.43;;;11.60;99.90;;;;;;4976552;28;20655;-78
2023/05/15 01:11:15;;;;;;;63.73;45.17;;;11.60;99.90;;;;;;4973945;28;20164;-82
2023/05/15 01:13:41;;;;;;;63.50;45.80;;;11.60;99.90;;;;;;4972760;28;20176;-84
2023/05/15 01:16:08;;;;;;;58.13;43.57;;;11.70;99.90;;;;;;4973390;28;20179;-79
2023/05/15 01:18:35;;;;;;;59.53;44.70;;;11.60;99.90;;;;;;4972857;28;20165;-84
2023/05/15 01:21:26;;;;;;;60.83;46.23;;;11.50;99.90;;;;;;4971994;28;20593;-83
2023/05/15 01:24:12;;;;;;;63.67;45.30;;;11.40;99.90;;;;;;4972088;28;20267;-84
2023/05/15 01:26:39;;;;;;;62.33;45.57;;;11.50;99.90;;;;;;4966985;28;20173;-90
2023/05/15 01:29:19;;;;;;;64.00;46.70;;;11.50;99.90;;;;;;4963221;29;20647;-80
2023/05/15 01:31:51;;;;;;;62.70;45.20;;;11.40;99.90;;;;;;4960809;28;20259;-88
2023/05/15 01:34:21;;;;;;;66.37;47.60;;;11.40;99.90;;;;;;4960069;28;20195;-85
2023/05/15 01:36:52;;;;;;;62.20;44.10;;;11.50;99.90;;;;;;4964942;28;20172;-89
2023/05/15 01:39:22;;;;;;;59.13;45.60;;;11.50;99.90;;;;;;4956601;28;20187;-91
2023/05/15 01:41:53;;;;;;;63.20;47.67;;;11.40;99.90;;;;;;4965856;28;20172;-90
2023/05/15 01:44:32;;;;;;;64.50;45.90;;;11.50;99.90;;;;;;4963900;28;20200;-76
2023/05/15 01:47:00;;;;;;;59.00;44.37;;;11.50;99.90;;;;;;4961105;29;20207;-89
2023/05/15 01:49:27;;;;;;;60.27;44.33;;;11.40;99.90;;;;;;4958029;28;20192;-86
2023/05/15 01:52:12;;;;;;;61.90;45.27;;;11.20;99.90;;;;;;4956284;29;20179;-88
2023/05/15 01:54:39;;;;;;;66.70;47.40;;;11.20;99.90;;;;;;4960373;28;20302;-83
2023/05/15 01:57:06;;;;;;;63.90;46.33;;;11.20;99.90;;;;;;4967241;28;20183;-77
2023/05/15 01:59:33;;;;;;;63.80;46.90;;;11.20;99.90;;;;;;4976425;28;20267;-81
2023/05/15 02:02:00;;;;;;;67.50;48.10;;;11.30;99.90;;;;;;4976152;28;20175;-77
2023/05/15 02:04:27;;;;;;;66.20;48.13;;;11.30;99.90;;;;;;4975821;28;20252;-78
2023/05/15 02:06:54;;;;;;;64.33;47.67;;;11.40;99.90;;;;;;4979460;28;20188;-77
2023/05/15 02:09:22;;;;;;;62.30;47.47;;;11.40;99.90;;;;;;4978487;28;20235;-80
2023/05/15 02:11:48;;;;;;;61.67;46.10;;;11.40;99.90;;;;;;4977858;29;20171;-79
2023/05/15 02:14:16;;;;;;;63.17;47.00;;;11.40;99.90;;;;;;4975902;29;20203;-80
2023/05/15 02:16:42;;;;;;;61.23;46.53;;;11.30;99.90;;;;;;4974891;28;20183;-81
2023/05/15 02:19:08;;;;;;;59.23;45.37;;;11.30;99.90;;;;;;4978155;28;20176;-91
2023/05/15 02:21:34;;;;;;;59.37;45.27;;;11.40;99.90;;;;;;4979186;28;20227;-90
2023/05/15 02:24:00;;;;;;;61.47;47.50;;;11.50;99.90;;;;;;4978819;28;20258;-92
2023/05/15 02:27:01;;;;;;;56.23;45.10;;;11.40;99.90;;;;;;4982928;28;20179;-90
2023/05/15 02:29:38;;;;;;;59.27;46.90;;;11.50;99.90;;;;;;4988484;28;20196;-85
2023/05/15 02:32:08;;;;;;;55.37;44.50;;;11.50;99.90;;;;;;4984550;28;20171;-89
2023/05/15 02:35:13;;;;;;;55.43;43.77;;;11.50;99.90;;;;;;4978890;28;20203;-85
2023/05/15 02:37:42;;;;;;;61.40;44.93;;;11.50;99.90;;;;;;4975019;28;20191;-89
2023/05/15 02:40:10;;;;;;;58.53;44.90;;;11.40;99.90;;;;;;4978715;28;20258;-89
2023/05/15 02:42:37;;;;;;;61.57;47.43;;;11.50;99.90;;;;;;4992143;28;20588;-91
2023/05/15 02:45:06;;;;;;;61.77;46.87;;;11.40;99.90;;;;;;4976958;28;20219;-87
2023/05/15 02:47:33;;;;;;;66.10;48.13;;;11.30;99.90;;;;;;4992292;28;20172;-78
2023/05/15 02:50:00;;;;;;;66.10;46.97;;;11.30;99.90;;;;;;4997009;28;20608;-81
2023/05/15 02:52:25;;;;;;;69.63;50.57;;;11.30;99.90;;;;;;4991762;28;20202;-90
2023/05/15 02:54:52;;;;;;;69.20;48.33;;;11.30;99.90;;;;;;4983132;28;20171;-87
2023/05/15 02:57:18;;;;;;;74.03;50.00;;;11.10;99.90;;;;;;4996981;28;20196;-85
2023/05/15 02:59:44;;;;;;;70.67;48.83;;;11.10;99.90;;;;;;4984361;28;20179;-84
2023/05/15 03:02:10;;;;;;;76.63;50.73;;;11.00;99.90;;;;;;4994637;28;20179;-89
2023/05/15 03:04:36;;;;;;;80.67;51.27;;;10.90;99.90;;;;;;4982752;28;20223;-84
2023/05/15 03:07:01;;;;;;;79.53;52.27;;;10.90;99.90;;;;;;4986328;28;20171;-88
2023/05/15 03:09:29;;;;;;;79.60;51.93;;;10.90;99.90;;;;;;4980710;28;20210;-89
2023/05/15 03:11:55;;;;;;;85.27;53.57;;;11.00;99.90;;;;;;4962136;28;20186;-91
2023/05/15 03:14:20;;;;;;;86.53;49.60;;;11.00;99.90;;;;;;4979248;28;20254;-85
2023/05/15 03:16:59;;;;;;;75.77;45.63;;;10.80;99.90;;;;;;4980311;28;20164;-89
2023/05/15 03:19:26;;;;;;;87.83;48.83;;;10.70;99.90;;;;;;4979287;28;20180;-87
2023/05/15 03:21:52;;;;;;;81.60;51.33;;;10.70;99.90;;;;;;4980779;28;20644;-87
2023/05/15 03:24:17;;;;;;;92.93;51.33;;;10.80;99.90;;;;;;4994954;28;20266;-89
2023/05/15 03:26:44;;;;;;;89.77;49.50;;;10.70;99.90;;;;;;4980229;28;20168;-91
2023/05/15 03:29:10;;;;;;;83.17;48.90;;;10.70;99.90;;;;;;4995835;28;20191;-85
2023/05/15 03:31:35;;;;;;;91.97;49.67;;;10.80;99.90;;;;;;4983020;28;20172;-89
2023/05/15 03:34:01;;;;;;;99.73;50.47;;;10.80;99.90;;;;;;4980203;28;20191;-88
2023/05/15 03:36:27;;;;;;;90.73;47.10;;;10.70;99.90;;;;;;4986356;28;20168;-77
2023/05/15 03:38:52;;;;;;;94.90;50.77;;;10.70;99.90;;;;;;4998835;28;20160;-78
2023/05/15 03:41:18;;;;;;;103.47;48.97;;;10.60;99.90;;;;;;4994396;28;20159;-84
2023/05/15 03:43:44;;;;;;;93.73;49.13;;;10.60;99.90;;;;;;4991686;28;20722;-85
2023/05/15 03:46:10;;;;;;;93.00;50.07;;;10.50;99.90;;;;;;4983241;28;20172;-89
2023/05/15 03:48:36;;;;;;;97.40;46.90;;;10.50;99.90;;;;;;4979458;28;20251;-88
2023/05/15 03:51:03;;;;;;;94.53;49.53;;;10.40;99.90;;;;;;4978616;28;20195;-89
2023/05/15 03:53:29;;;;;;;85.27;48.53;;;10.40;99.90;;;;;;4982193;28;20605;-89
2023/05/15 03:55:55;;;;;;;80.60;48.30;;;10.40;99.90;;;;;;4985863;28;20171;-87
2023/05/15 03:58:21;;;;;;;79.70;46.57;;;10.50;99.90;;;;;;4998393;28;20223;-78
2023/05/15 04:00:46;;;;;;;82.70;48.27;;;10.60;99.90;;;;;;4999248;28;20184;-78
2023/05/15 04:03:12;;;;;;;75.50;46.80;;;10.70;99.90;;;;;;4994451;28;20183;-80
2023/05/15 04:05:48;;;;;;;77.00;45.77;;;10.60;99.90;;;;;;4990061;28;20187;-91
2023/05/15 04:08:41;;;;;;;73.00;43.00;;;10.60;99.90;;;;;;4980810;28;20171;-87
2023/05/15 04:11:10;;;;;;;79.57;46.90;;;10.40;99.90;;;;;;4980531;28;20175;-87
2023/05/15 04:13:35;;;;;;;72.43;44.73;;;10.40;99.90;;;;;;4980615;28;20184;-85
2023/05/15 04:16:03;;;;;;;79.47;45.43;;;10.40;99.90;;;;;;4982059;28;20206;-85
2023/05/15 04:18:28;;;;;;;67.07;44.20;;;10.40;99.90;;;;;;4983020;28;20258;-79
2023/05/15 04:20:54;;;;;;;69.07;45.33;;;10.50;99.90;;;;;;4992786;28;20183;-86
2023/05/15 04:23:20;;;;;;;66.67;44.60;;;10.60;99.90;;;;;;4985749;28;20262;-84
2023/05/15 04:25:45;;;;;;;66.33;44.43;;;10.70;99.90;;;;;;4986871;28;20172;-89
2023/05/15 04:28:14;;;;;;;71.70;46.13;;;10.80;99.90;;;;;;4992401;28;20168;-81
2023/05/15 04:30:40;;;;;;;68.30;45.47;;;10.70;99.90;;;;;;4996543;28;20164;-82
2023/05/15 04:33:06;;;;;;;63.93;42.03;;;10.70;99.90;;;;;;4995209;28;20164;-82
2023/05/15 04:35:32;;;;;;;59.60;41.43;;;10.70;99.90;;;;;;4992515;28;20219;-90
2023/05/15 04:37:59;;;;;;;55.33;39.80;;;10.70;99.90;;;;;;4985029;28;20168;-83
2023/05/15 04:40:25;;;;;;;53.87;38.33;;;10.70;99.90;;;;;;4983590;28;20266;-87
2023/05/15 04:42:50;;;;;;;54.50;38.73;;;10.70;99.90;;;;;;4981197;28;20215;-90
2023/05/15 04:45:16;;;;;;;52.47;38.07;;;10.80;99.90;;;;;;4982554;28;20285;-90
2023/05/15 04:47:43;;;;;;;53.07;38.93;;;10.80;99.90;;;;;;4982404;28;20608;-92
2023/05/15 04:50:10;;;;;;;51.27;37.30;;;10.90;99.90;;;;;;4981084;28;20176;-90
2023/05/15 04:52:35;;;;;;;53.90;38.30;;;10.80;99.90;;;;;;4984530;28;20172;-86
2023/05/15 04:55:01;;;;;;;56.43;37.87;;;10.70;99.90;;;;;;4993511;28;20172;-79
2023/05/15 04:57:27;;;;;;;57.93;38.40;;;10.70;99.90;;;;;;4994103;28;20698;-77
2023/05/15 04:59:53;;;;;;;55.93;38.47;;;10.70;99.90;;;;;;4994866;28;20186;-85
2023/05/15 05:02:22;;;;;;;54.30;39.03;;;10.80;99.90;;;;;;4986211;28;20194;-90
2023/05/15 05:04:49;;;;;;;56.07;38.90;;;10.90;99.90;;;;;;4995226;28;20307;-79
2023/05/15 05:07:20;;;;;;;50.00;37.27;;;10.80;99.90;;;;;;4993417;28;20167;-91
2023/05/15 05:09:47;;;;;;;54.70;39.30;;;10.70;99.90;;;;;;4979849;28;20218;-87
2023/05/15 05:12:13;;;;;;;51.50;38.77;;;10.70;99.90;;;;;;4977363;28;20176;-80
2023/05/15 05:14:40;;;;;;;55.07;38.37;;;10.70;99.90;;;;;;4979279;28;20211;-88
2023/05/15 05:17:06;;;;;;;54.97;40.50;;;10.90;99.90;;;;;;4981206;28;20477;-83
2023/05/15 05:19:32;;;;;;;57.03;39.70;;;10.90;99.90;;;;;;4981030;28;20182;-91
2023/05/15 05:22:03;;;;;;;54.33;39.33;;;10.70;99.90;;;;;;4987174;28;20203;-88
2023/05/15 05:24:31;;;;;;;58.27;40.73;;;10.40;99.90;;;;;;4984026;28;20212;-80
2023/05/15 05:26:57;;;;;;;54.57;39.80;;;10.20;99.90;;;;;;4981342;28;20172;-88
2023/05/15 05:29:24;;;;;;;59.83;40.63;;;10.30;99.90;;;;;;4984279;28;20184;-85
2023/05/15 05:31:50;;;;;;;58.60;42.07;;;10.30;99.90;;;;;;4981873;28;20226;-82
2023/05/15 05:34:16;;;;;;;59.20;41.50;;;10.40;99.90;;;;;;5000305;28;20231;-79
2023/05/15 05:36:42;;;;;;;63.00;42.90;;;10.40;99.90;;;;;;4986825;28;20187;-86
2023/05/15 05:39:09;;;;;;;60.33;42.80;;;10.40;99.90;;;;;;4989444;28;20199;-82
2023/05/15 05:41:34;;;;;;;62.70;43.30;;;10.30;99.90;;;;;;5001576;28;20178;-80
2023/05/15 05:44:00;;;;;;;57.03;42.43;;;10.40;99.90;;;;;;4990595;28;20246;-87
2023/05/15 05:46:26;;;;;;;53.00;41.73;;;10.20;99.90;;;;;;4982849;28;20172;-81
2023/05/15 05:48:52;;;;;;;56.70;42.23;;;10.30;99.90;;;;;;4979695;28;20200;-78
2023/05/15 05:51:19;;;;;;;53.40;41.77;;;10.40;99.90;;;;;;4979116;28;20175;-84
2023/05/15 05:53:44;;;;;;;60.33;41.80;;;10.40;99.90;;;;;;4963300;28;20203;-79
2023/05/15 05:56:10;;;;;;;53.70;41.13;;;10.60;99.90;;;;;;4976532;28;20195;-79
2023/05/15 05:58:36;;;;;;;57.73;44.50;;;10.60;99.90;;;;;;4980725;28;20214;-86
2023/05/15 06:01:02;;;;;;;55.27;42.50;;;10.50;99.90;;;;;;4966963;28;20188;-91
2023/05/15 06:03:28;;;;;;;50.77;37.20;;;10.50;99.90;;;;;;4978588;28;20250;-87
2023/05/15 06:05:54;;;;;;;50.80;40.23;;;10.40;99.90;;;;;;4978925;28;20179;-80
2023/05/15 06:08:20;;;;;;;49.17;39.60;;;10.20;99.90;;;;;;4981898;28;20191;-86
2023/05/15 06:10:46;;;;;;;51.07;41.53;;;10.40;99.90;;;;;;4987443;28;20464;-79
2023/05/15 06:13:13;;;;;;;51.03;39.40;;;10.50;99.90;;;;;;4975993;28;20654;-79
2023/05/15 06:15:39;;;;;;;52.30;39.83;;;10.60;99.90;;;;;;4975345;28;20257;-81
2023/05/15 06:18:08;;;;;;;48.53;40.03;;;10.70;99.90;;;;;;4985187;28;20168;-80
2023/05/15 06:20:37;;;;;;;48.23;38.47;;;10.80;99.90;;;;;;4977196;28;20234;-89
2023/05/15 06:23:03;;;;;;;50.83;39.80;;;11.00;99.90;;;;;;4976908;28;20514;-86
2023/05/15 06:25:30;;;;;;;50.27;41.20;;;11.10;99.90;;;;;;4976030;28;20203;-84
2023/05/15 06:27:56;;;;;;;50.80;39.80;;;11.10;99.90;;;;;;4983239;28;20171;-81
2023/05/15 06:30:22;;;;;;;46.83;37.47;;;11.00;99.90;;;;;;4983106;28;20265;-85
2023/05/15 06:32:50;;;;;;;47.77;37.83;;;11.10;99.90;;;;;;4979731;28;20215;-91
2023/05/15 06:35:17;;;;;;;46.03;36.83;;;11.10;99.90;;;;;;4986025;28;20191;-86
2023/05/15 06:37:48;;;;;;;47.07;37.53;;;11.00;99.90;;;;;;4998442;28;20178;-81
2023/05/15 06:40:15;;;;;;;47.30;37.80;;;10.90;99.90;;;;;;4995640;28;20160;-79
2023/05/15 06:42:42;;;;;;;46.97;37.93;;;11.00;99.90;;;;;;4991655;28;20169;-91
2023/05/15 06:45:10;;;;;;;45.80;37.83;;;11.10;99.90;;;;;;4979924;28;20216;-87
2023/05/15 06:47:36;;;;;;;43.80;35.83;;;11.00;99.90;;;;;;4963353;28;20171;-89
2023/05/15 06:50:03;;;;;;;45.57;36.60;;;11.00;99.90;;;;;;4982434;28;20173;-88
2023/05/15 06:52:28;;;;;;;43.73;36.70;;;11.00;99.90;;;;;;4981224;28;20172;-85
2023/05/15 06:54:54;;;;;;;47.53;35.80;;;11.10;99.90;;;;;;4978197;28;20179;-82
2023/05/15 06:57:20;;;;;;;42.93;36.20;;;11.10;99.90;;;;;;4997724;28;20168;-79
2023/05/15 06:59:45;;;;;;;43.90;34.30;;;10.90;99.90;;;;;;4995682;28;20172;-80
2023/05/15 07:02:11;;;;;;;43.13;35.83;;;10.80;99.90;;;;;;4994161;28;20225;-84
2023/05/15 07:04:37;;;;;;;42.87;34.87;;;11.10;99.90;;;;;;4990023;28;20232;-79
2023/05/15 07:07:20;;;;;;;40.33;33.53;;;11.30;99.90;;;;;;4989600;28;20696;-78
2023/05/15 07:10:07;;;;;;;41.07;33.57;;;11.40;99.90;;;;;;4984074;28;20164;-82
2023/05/15 07:13:05;;;;;;;42.13;34.03;;;11.40;99.90;;;;;;4980967;28;20171;-83
2023/05/15 07:15:33;;;;;;;43.93;36.23;;;11.50;99.90;;;;;;4979553;28;20172;-86
2023/05/15 07:17:58;;;;;;;45.37;36.23;;;11.50;99.90;;;;;;4978092;28;20194;-89
2023/05/15 07:20:24;;;;;;;43.27;35.73;;;11.60;99.90;;;;;;4979816;28;20625;-89
2023/05/15 07:22:50;;;;;;;42.90;36.03;;;11.70;99.90;;;;;;4980728;28;20254;-89
2023/05/15 07:25:17;;;;;;;45.73;35.63;;;11.50;99.90;;;;;;4982406;28;20602;-80
2023/05/15 07:27:42;;;;;;;44.10;35.00;;;11.60;99.90;;;;;;4995397;28;20171;-81
2023/05/15 07:30:10;;;;;;;38.43;33.37;;;11.70;99.90;;;;;;4994090;28;20184;-79
2023/05/15 07:32:35;;;;;;;41.07;34.20;;;11.80;99.90;;;;;;4992333;28;20191;-79
2023/05/15 07:35:03;;;;;;;41.20;34.83;;;12.00;99.90;;;;;;4983040;28;20183;-79
2023/05/15 07:37:29;;;;;;;41.30;33.97;;;12.20;99.90;;;;;;4989159;28;20176;-79
2023/05/15 07:39:56;;;;;;;42.57;36.13;;;12.40;99.90;;;;;;4983343;28;20196;-84
2023/05/15 07:42:22;;;;;;;40.53;34.07;;;12.70;99.90;;;;;;4980730;28;20162;-77
2023/05/15 07:44:48;;;;;;;40.47;34.53;;;12.80;97.10;;;;;;4980555;28;20337;-79
2023/05/15 07:47:14;;;;;;;41.07;34.87;;;12.90;94.30;;;;;;4980075;28;20632;-80
2023/05/15 07:49:40;;;;;;;39.07;34.57;;;13.00;94.10;;;;;;4979098;28;20213;-79
2023/05/15 07:52:06;;;;;;;37.40;32.43;;;13.00;94.20;;;;;;4979258;28;20166;-87
2023/05/15 07:54:32;;;;;;;36.60;32.40;;;13.10;93.30;;;;;;4982808;28;20186;-86
2023/05/15 07:56:57;;;;;;;37.70;33.03;;;13.20;92.10;;;;;;4983964;28;20199;-77
2023/05/15 07:59:23;;;;;;;39.53;33.27;;;13.30;89.60;;;;;;4984940;28;20166;-78
2023/05/15 08:01:49;;;;;;;41.90;35.47;;;13.30;83.70;;;;;;4982629;28;20183;-84
2023/05/15 08:04:16;;;;;;;43.60;34.47;;;13.30;85.50;;;;;;4986312;28;20216;-81
2023/05/15 08:06:43;;;;;;;39.80;34.03;;;13.30;85.30;;;;;;4980243;28;20317;-79
2023/05/15 08:09:09;;;;;;;40.47;33.40;;;13.40;85.10;;;;;;4990600;28;20187;-82
2023/05/15 08:11:36;;;;;;;39.70;33.67;;;13.40;84.80;;;;;;4993521;28;20276;-78
2023/05/15 08:14:04;;;;;;;38.93;32.90;;;13.30;87.60;;;;;;5000412;28;20162;-77
2023/05/15 08:16:33;;;;;;;38.10;33.27;;;13.30;84.10;;;;;;4991775;28;20153;-78
2023/05/15 08:19:24;;;;;;;42.30;34.10;;;13.30;87.00;;;;;;4980856;28;20167;-77
2023/05/15 08:21:50;;;;;;;41.73;35.27;;;13.40;87.00;;;;;;4976778;28;20182;-81
2023/05/15 08:24:16;;;;;;;40.87;34.50;;;13.40;83.30;;;;;;4978044;28;20270;-89
2023/05/15 08:26:42;;;;;;;39.93;34.60;;;13.50;83.30;;;;;;4978767;28;20235;-82
2023/05/15 08:29:10;;;;;;;40.70;33.90;;;13.40;81.00;;;;;;4978214;28;20615;-81
2023/05/15 08:31:37;;;;;;;38.33;33.10;;;13.40;85.60;;;;;;4976501;28;20635;-80
2023/05/15 08:34:02;;;;;;;43.77;35.30;;;13.50;85.30;;;;;;4976641;28;20180;-79
2023/05/15 08:36:34;;;;;;;46.87;37.13;;;13.60;84.10;;;;;;4976989;28;20198;-79
2023/05/15 08:39:01;;;;;;;44.97;36.60;;;13.40;80.90;;;;;;4976715;28;20177;-80
2023/05/15 08:41:41;;;;;;;41.80;35.80;;;13.10;85.90;;;;;;4982438;28;20225;-77
2023/05/15 08:44:09;;;;;;;42.83;35.40;;;13.00;90.00;;;;;;4980089;28;20202;-80
2023/05/15 08:46:36;;;;;;;42.67;35.77;;;13.00;92.50;;;;;;4978378;28;20505;-79
2023/05/15 08:49:11;;;;;;;46.93;37.30;;;13.10;91.40;;;;;;4973700;28;20254;-80
2023/05/15 08:51:38;;;;;;;41.53;35.43;;;13.10;91.00;;;;;;4966938;28;20563;-81
2023/05/15 08:54:04;;;;;;;45.77;36.93;;;13.20;91.00;;;;;;4977316;28;20160;-80
2023/05/15 08:56:30;;;;;;;42.83;36.33;;;13.40;90.20;;;;;;4978627;28;20659;-82
2023/05/15 08:58:56;;;;;;;42.37;36.43;;;13.60;84.80;;;;;;4985804;28;20183;-77
2023/05/15 09:01:22;;;;;;;43.33;36.57;;;13.80;74.40;;;;;;4987634;28;20553;-80
2023/05/15 09:03:48;;;;;;;43.60;36.67;;;13.90;74.40;;;;;;4995124;28;20296;-78
2023/05/15 09:06:14;;;;;;;43.53;37.60;;;14.00;69.20;;;;;;4985363;28;20650;-79
2023/05/15 09:08:41;;;;;;;40.83;35.80;;;14.20;66.60;;;;;;4977758;28;20190;-78
2023/05/15 09:11:07;;;;;;;42.77;36.60;;;14.30;69.30;;;;;;4969441;28;20621;-78
2023/05/15 09:13:33;;;;;;;41.13;35.70;;;14.20;70.90;;;;;;4961704;28;20187;-78
2023/05/15 09:15:59;;;;;;;41.60;36.03;;;14.20;65.80;;;;;;4959048;28;20472;-78
2023/05/15 09:18:26;;;;;;;41.43;33.87;;;14.30;65.70;;;;;;4957642;28;20171;-81
2023/05/15 09:24:24;;;;;;;42.07;33.73;;;14.20;26.40;;;;;;4957734;28;20258;-81
2023/05/15 09:27:06;;;;;;;39.63;33.07;;;14.00;42.30;;;;;;4958691;28;20241;-81
2023/05/15 09:29:36;;;;;;;38.77;31.67;;;13.90;46.60;;;;;;4956133;28;20259;-81
2023/05/15 09:32:09;;;;;;;39.57;31.10;;;14.00;44.00;;;;;;4956909;28;20251;-80
2023/05/15 09:34:38;;;;;;;39.60;30.27;;;14.10;38.80;;;;;;4965502;28;20191;-83
2023/05/15 09:37:25;;;;;;;39.23;30.90;;;14.00;42.00;;;;;;4970452;28;20642;-78
2023/05/15 09:39:51;;;;;;;39.07;30.90;;;14.10;40.60;;;;;;4957434;28;20635;-79
2023/05/15 09:42:23;;;;;;;36.50;28.70;;;14.10;44.10;;;;;;4955543;29;20191;-78
2023/05/15 09:44:50;;;;;;;37.97;28.80;;;14.30;42.80;;;;;;4957200;28;20214;-78
2023/05/15 09:47:16;;;;;;;37.67;30.40;;;14.50;33.00;;;;;;4956538;28;20175;-80
2023/05/15 09:49:45;;;;;;;33.63;28.47;;;14.50;27.70;;;;;;4955267;29;20177;-80
2023/05/15 09:52:14;;;;;;;37.20;29.53;;;14.60;23.90;;;;;;4959201;29;20178;-78
2023/05/15 09:54:44;;;;;;;35.63;29.17;;;14.60;25.70;;;;;;4963589;28;20240;-79
2023/05/15 09:57:12;;;;;;;38.20;29.23;;;14.30;31.30;;;;;;4961571;29;20180;-78
2023/05/15 09:59:46;;;;;;;36.87;29.20;;;14.20;36.40;;;;;;4975654;28;20212;-77
2023/05/15 10:02:23;;;;;;;39.90;30.30;;;14.10;38.10;;;;;;4971473;29;20156;-82
2023/05/15 10:04:55;;;;;;;41.23;30.83;;;13.90;47.60;;;;;;4974004;28;20227;-77
2023/05/15 10:07:31;;;;;;;41.10;30.87;;;13.90;49.60;;;;;;4967145;28;20167;-79
2023/05/15 10:09:58;;;;;;;37.80;29.30;;;13.90;50.70;;;;;;4963638;28;20545;-78
2023/05/15 10:12:25;;;;;;;37.77;29.10;;;13.80;54.80;;;;;;4957014;28;20566;-78
2023/05/15 10:14:53;;;;;;;39.60;29.63;;;13.90;54.90;;;;;;4963162;28;20164;-83
2023/05/15 10:17:20;;;;;;;38.70;29.27;;;14.00;52.90;;;;;;4964073;28;20161;-86
2023/05/15 10:19:50;;;;;;;39.70;28.57;;;14.00;47.10;;;;;;4959994;28;20174;-81
2023/05/15 10:22:59;;;;;;;40.33;29.90;;;13.70;57.10;;;;;;4956600;28;20157;-79
2023/05/15 10:25:27;;;;;;;39.63;28.87;;;13.80;60.40;;;;;;4958404;29;20215;-87
2023/05/15 10:27:54;;;;;;;40.50;30.27;;;14.00;60.60;;;;;;4959846;28;20171;-88
2023/05/15 10:30:27;;;;;;;38.63;28.87;;;14.10;54.80;;;;;;4961900;28;20172;-80
2023/05/15 10:32:55;;;;;;;40.77;29.47;;;14.30;50.60;;;;;;4957272;28;20161;-80
2023/05/15 10:35:21;;;;;;;40.30;30.00;;;14.20;44.50;;;;;;4956529;29;20556;-79
2023/05/15 10:37:48;;;;;;;40.43;29.40;;;14.20;47.50;;;;;;4958335;28;20182;-82
2023/05/15 10:40:16;;;;;;;41.33;30.83;;;14.30;46.60;;;;;;4963092;28;20172;-89
2023/05/15 10:42:46;;;;;;;43.47;31.20;;;14.50;47.60;;;;;;4967380;29;20214;-90
2023/05/15 10:45:12;;;;;;;39.30;29.30;;;14.40;49.20;;;;;;4959800;29;20242;-80
2023/05/15 10:47:41;;;;;;;42.47;31.67;;;14.60;50.70;;;;;;4962312;28;20188;-88
2023/05/15 10:50:09;;;;;;;43.70;30.60;;;14.60;43.20;;;;;;4964720;28;20311;-82
2023/05/15 10:52:37;;;;;;;44.10;30.23;;;14.70;39.40;;;;;;4957382;29;20297;-78
2023/05/15 10:55:06;;;;;;;45.73;30.50;;;14.70;42.80;;;;;;4966011;28;20192;-88
2023/05/15 10:57:33;;;;;;;46.47;32.03;;;14.90;45.00;;;;;;4972575;29;20162;-80
2023/05/15 11:00:01;;;;;;;44.20;31.87;;;15.10;39.00;;;;;;4977953;28;20164;-84
2023/05/15 11:02:29;;;;;;;44.97;30.87;;;15.20;31.40;;;;;;4977655;28;20184;-81
2023/05/15 11:04:56;;;;;;;43.87;31.27;;;15.20;31.90;;;;;;4977143;28;20220;-84
2023/05/15 11:07:25;;;;;;;46.73;32.47;;;15.20;29.30;;;;;;4977223;28;20193;-86
2023/05/15 11:09:52;;;;;;;48.70;33.00;;;15.00;39.50;;;;;;4977808;28;20156;-79
2023/05/15 11:12:20;;;;;;;49.37;33.67;;;14.80;45.50;;;;;;4978976;28;20154;-81
2023/05/15 11:14:55;;;;;;;51.60;34.93;;;14.80;49.50;;;;;;4975811;28;20203;-79
2023/05/15 11:17:23;;;;;;;51.67;35.13;;;14.70;52.70;;;;;;4963223;28;20164;-78
2023/05/15 11:19:48;;;;;;;50.77;34.77;;;14.70;52.70;;;;;;4963403;28;20647;-80
2023/05/15 11:22:37;;;;;;;51.97;34.30;;;14.80;52.30;;;;;;4963115;28;20172;-82
2023/05/15 11:25:11;;;;;;;51.67;35.00;;;14.80;55.70;;;;;;4978385;28;20278;-81
2023/05/15 11:28:06;;;;;;;50.07;34.83;;;14.80;59.20;;;;;;4982486;28;20164;-81
2023/05/15 11:30:38;;;;;;;50.73;33.40;;;14.80;60.30;;;;;;4978985;28;20168;-79
2023/05/15 11:33:10;;;;;;;53.57;35.37;;;14.70;65.30;;;;;;4963642;28;20171;-77
2023/05/15 11:35:46;;;;;;;53.13;35.70;;;14.80;66.60;;;;;;4960897;29;20210;-80
2023/05/15 11:38:19;;;;;;;57.73;37.30;;;14.80;73.10;;;;;;4960444;28;20254;-79
2023/05/15 11:40:57;;;;;;;58.97;38.83;;;14.70;75.50;;;;;;4959568;28;20176;-78
2023/05/15 11:47:22;;;;;;;61.47;39.00;;;14.70;84.40;;;;;;4966561;29;20190;-90
2023/05/15 11:49:49;;;;;;;73.10;45.70;;;14.60;87.40;;;;;;4980289;29;20163;-83
2023/05/15 11:52:18;;;;;;;83.17;48.60;;;14.70;85.10;;;;;;4979648;28;20260;-82
2023/05/15 11:54:45;;;;;;;68.97;45.90;;;14.60;83.20;;;;;;4970391;29;20184;-90
2023/05/15 11:57:11;;;;;;;68.30;44.87;;;14.60;83.10;;;;;;4966374;28;20259;-92
2023/05/15 11:59:40;;;;;;;74.83;47.03;;;14.50;88.50;;;;;;4963789;29;20196;-93
2023/05/15 12:02:05;;;;;;;70.23;43.93;;;14.30;92.90;;;;;;4966232;28;20693;-89
2023/05/15 12:04:33;;;;;;;66.93;45.07;;;14.20;93.60;;;;;;4968397;29;20210;-81
2023/05/15 12:07:00;;;;;;;72.70;44.63;;;14.10;96.00;;;;;;4959528;28;20173;-80
2023/05/15 12:09:28;;;;;;;61.20;41.60;;;14.20;97.40;;;;;;4960004;28;20187;-89
2023/05/15 12:11:54;;;;;;;57.63;41.30;;;14.30;94.70;;;;;;4965915;28;20175;-81
2023/05/15 12:14:29;;;;;;;66.50;42.27;;;14.40;93.50;;;;;;4978374;28;20516;-81
2023/05/15 12:17:03;;;;;;;61.40;40.83;;;14.30;94.20;;;;;;4978225;28;20181;-82
2023/05/15 12:19:35;;;;;;;63.30;40.10;;;14.20;96.60;;;;;;4978866;28;20175;-78
2023/05/15 12:22:07;;;;;;;68.43;42.00;;;14.30;97.00;;;;;;4978793;28;20182;-81
2023/05/15 12:24:38;;;;;;;68.77;42.37;;;14.30;96.60;;;;;;4978493;28;20200;-81
2023/05/15 12:27:05;;;;;;;69.87;45.27;;;14.20;96.80;;;;;;4977675;28;20635;-77
2023/05/15 12:29:30;;;;;;;65.60;42.03;;;14.10;98.50;;;;;;4979309;28;20646;-78
2023/05/15 12:31:56;;;;;;;63.20;40.10;;;14.20;98.20;;;;;;4978903;28;20172;-78
2023/05/15 12:34:23;;;;;;;49.77;35.67;;;14.00;99.90;;;;;;4986174;28;20181;-78
2023/05/15 12:36:51;;;;;;;52.70;35.10;;;14.00;99.90;;;;;;4998214;28;20193;-79
2023/05/15 12:39:16;;;;;;;48.37;34.17;;;13.90;99.90;;;;;;4979495;28;20537;-80
2023/05/15 12:41:45;;;;;;;59.17;37.67;;;13.70;99.90;;;;;;4979347;28;20182;-78